createdAt,value
2022-12-11T00:01:58.546Z,99478.75
2022-12-11T00:04:26.274Z,99480.31
2022-12-11T00:06:55.243Z,99475.38
2022-12-11T00:09:22.933Z,99478.47
2022-12-11T00:11:50.557Z,99471.22
2022-12-11T00:14:18.230Z,99479.06
2022-12-11T00:16:45.873Z,99481.59
2022-12-11T00:19:13.495Z,99482.56
2022-12-11T00:21:41.141Z,99479.25
2022-12-11T00:24:10.411Z,99478.28
2022-12-11T00:26:38.205Z,99479.66
2022-12-11T00:29:08.236Z,99466.25
2022-12-11T00:31:35.835Z,99467.31
2022-12-11T00:34:03.414Z,99469.06
2022-12-11T00:36:31.077Z,99462.44
2022-12-11T00:38:59.795Z,99465.84
2022-12-11T00:41:28.725Z,99461.38
2022-12-11T00:43:56.389Z,99461.56
2022-12-11T00:46:24.123Z,99462.44
2022-12-11T00:48:51.806Z,99460.00
2022-12-11T00:51:19.567Z,99462.34
2022-12-11T00:53:47.202Z,99461.78
2022-12-11T00:56:18.353Z,99463.31
2022-12-11T00:58:47.656Z,99467.50
2022-12-11T01:01:18.539Z,99469.34
2022-12-11T01:03:46.636Z,99471.69
2022-12-11T01:06:16.554Z,99462.72
2022-12-11T01:08:45.071Z,99474.41
2022-12-11T01:11:13.804Z,99472.47
2022-12-11T01:13:42.257Z,99468.97
2022-12-11T01:16:13.089Z,99479.06
2022-12-11T01:18:40.849Z,99478.09
2022-12-11T01:21:10.048Z,99488.41
2022-12-11T01:23:38.336Z,99486.75
2022-12-11T01:26:08.271Z,99492.88
2022-12-11T01:28:36.097Z,99488.59
2022-12-11T01:31:03.939Z,99490.13
2022-12-11T01:33:32.853Z,99491.13
2022-12-11T01:36:00.459Z,99494.41
2022-12-11T01:38:27.986Z,99493.44
2022-12-11T01:40:55.549Z,99490.03
2022-12-11T01:43:23.129Z,99492.50
2022-12-11T01:45:50.763Z,99493.53
2022-12-11T01:48:22.166Z,99490.91
2022-12-11T01:50:54.027Z,99486.75
2022-12-11T01:53:25.334Z,99485.88
2022-12-11T01:55:56.209Z,99490.91
2022-12-11T01:58:28.248Z,99492.66
2022-12-11T02:00:57.153Z,99494.22
2022-12-11T02:03:24.836Z,99497.53
2022-12-11T02:05:53.722Z,99502.59
2022-12-11T02:08:22.213Z,99514.22
2022-12-11T02:11:01.558Z,99510.03
2022-12-11T02:13:35.805Z,99508.81
2022-12-11T02:16:09.911Z,99514.81
2022-12-11T02:18:43.099Z,99509.75
2022-12-11T02:21:14.905Z,99508.97
2022-12-11T02:23:59.858Z,99509.97
2022-12-11T02:26:49.816Z,99508.31
2022-12-11T02:29:23.786Z,99505.09
2022-12-11T02:31:57.443Z,99500.81
2022-12-11T02:34:33.244Z,99500.03
2022-12-11T02:37:07.856Z,99498.09
2022-12-11T02:39:40.044Z,99501.03
2022-12-11T02:42:10.931Z,99504.31
2022-12-11T02:44:42.395Z,99501.81
2022-12-11T02:47:14.632Z,99498.00
2022-12-11T02:49:45.381Z,99505.59
2022-12-11T02:52:15.408Z,99502.47
2022-12-11T02:54:45.621Z,99495.78
2022-12-11T02:57:17.683Z,99494.91
2022-12-11T02:59:47.431Z,99502.28
2022-12-11T03:02:18.732Z,99506.84
2022-12-11T03:04:47.914Z,99493.44
2022-12-11T03:07:19.154Z,99493.44
2022-12-11T03:09:48.636Z,99496.34
2022-12-11T03:12:20.153Z,99489.56
2022-12-11T03:14:49.938Z,99488.41
2022-12-11T03:17:20.619Z,99488.59
2022-12-11T03:19:54.133Z,99489.09
2022-12-11T03:22:26.297Z,99487.44
2022-12-11T03:25:01.370Z,99494.03
2022-12-11T03:27:34.210Z,99497.16
2022-12-11T03:30:07.449Z,99503.56
2022-12-11T03:32:39.103Z,99495.38
2022-12-11T03:35:13.143Z,99496.56
2022-12-11T03:37:42.777Z,99495.78
2022-12-11T03:40:17.767Z,99497.44
2022-12-11T03:42:48.219Z,99493.25
2022-12-11T03:45:18.811Z,99501.03
2022-12-11T03:47:47.921Z,99497.50
2022-12-11T03:50:18.167Z,99499.88
2022-12-11T03:52:51.362Z,99496.72
2022-12-11T03:55:20.262Z,99493.16
2022-12-11T03:57:48.392Z,99495.69
2022-12-11T04:00:20.806Z,99501.22
2022-12-11T04:03:13.219Z,99493.84
2022-12-11T04:05:42.395Z,99504.72
2022-12-11T04:08:10.198Z,99493.25
2022-12-11T04:10:37.926Z,99498.69
2022-12-11T04:13:05.560Z,99497.16
2022-12-11T04:15:33.578Z,99498.97
2022-12-11T04:18:18.702Z,99485.69
2022-12-11T04:21:04.101Z,99487.41
2022-12-11T04:23:49.430Z,99491.78
2022-12-11T04:26:18.958Z,99489.75
2022-12-11T04:28:48.398Z,99477.19
2022-12-11T04:31:19.330Z,99479.63
2022-12-11T04:33:47.148Z,99478.84
2022-12-11T04:36:15.390Z,99486.22
2022-12-11T04:38:42.983Z,99486.13
2022-12-11T04:41:12.472Z,99484.47
2022-12-11T04:43:40.619Z,99484.47
2022-12-11T04:46:10.431Z,99481.78
2022-12-11T04:48:40.668Z,99483.59
2022-12-11T04:51:09.709Z,99479.63
2022-12-11T04:53:37.672Z,99475.53
2022-12-11T04:56:06.965Z,99481.66
2022-12-11T04:58:35.805Z,99484.34
2022-12-11T05:01:08.262Z,99482.75
2022-12-11T05:03:35.995Z,99478.31
2022-12-11T05:06:05.725Z,99480.44
2022-12-11T05:08:36.791Z,99476.66
2022-12-11T05:11:06.695Z,99473.44
2022-12-11T05:13:34.857Z,99478.69
2022-12-11T05:16:04.828Z,99482.38
2022-12-11T05:18:32.482Z,99475.75
2022-12-11T05:21:02.404Z,99468.78
2022-12-11T05:23:31.691Z,99470.72
2022-12-11T05:26:01.697Z,99459.25
2022-12-11T05:28:32.041Z,99464.69
2022-12-11T05:31:01.662Z,99470.09
2022-12-11T05:33:30.390Z,99473.72
2022-12-11T05:35:57.969Z,99467.22
2022-12-11T05:38:25.685Z,99457.47
2022-12-11T05:40:59.273Z,99460.97
2022-12-11T05:43:28.579Z,99465.13
2022-12-11T05:45:57.234Z,99455.91
2022-12-11T05:48:24.862Z,99458.44
2022-12-11T05:50:59.139Z,99457.56
2022-12-11T05:53:27.289Z,99447.22
2022-12-11T05:55:55.064Z,99457.19
2022-12-11T05:58:24.100Z,99454.91
2022-12-11T06:00:51.694Z,99453.28
2022-12-11T06:03:19.372Z,99450.03
2022-12-11T06:05:47.017Z,99460.34
2022-12-11T06:08:14.657Z,99449.19
2022-12-11T06:10:46.266Z,99447.31
2022-12-11T06:13:14.234Z,99448.31
2022-12-11T06:15:43.876Z,99444.13
2022-12-11T06:18:11.599Z,99441.88
2022-12-11T06:20:39.435Z,99439.50
2022-12-11T06:23:07.063Z,99440.13
2022-12-11T06:25:35.242Z,99434.88
2022-12-11T06:28:02.916Z,99430.69
2022-12-11T06:30:38.316Z,99425.28
2022-12-11T06:33:08.400Z,99426.75
2022-12-11T06:35:41.663Z,99427.53
2022-12-11T06:38:10.495Z,99424.41
2022-12-11T06:40:38.202Z,99427.53
2022-12-11T06:43:06.184Z,99427.34
2022-12-11T06:45:33.866Z,99424.91
2022-12-11T06:48:01.483Z,99430.84
2022-12-11T06:50:30.392Z,99425.00
2022-12-11T06:52:58.102Z,99429.97
2022-12-11T06:55:25.707Z,99428.91
2022-12-11T06:57:53.223Z,99430.47
2022-12-11T07:00:21.129Z,99422.09
2022-12-11T07:02:48.726Z,99422.03
2022-12-11T07:05:16.369Z,99427.81
2022-12-11T07:07:45.349Z,99435.31
2022-12-11T07:10:13.021Z,99435.72
2022-12-11T07:12:40.730Z,99437.47
2022-12-11T07:15:09.536Z,99443.31
2022-12-11T07:17:37.362Z,99452.13
2022-12-11T07:20:05.802Z,99446.41
2022-12-11T07:22:33.355Z,99445.50
2022-12-11T07:25:02.474Z,99444.34
2022-12-11T07:27:30.216Z,99436.41
2022-12-11T07:29:57.772Z,99441.28
2022-12-11T07:32:25.469Z,99440.31
2022-12-11T07:34:53.099Z,99444.22
2022-12-11T07:37:20.669Z,99440.81
2022-12-11T07:39:48.885Z,99458.41
2022-12-11T07:42:17.919Z,99460.16
2022-12-11T07:44:45.473Z,99459.38
2022-12-11T07:47:13.037Z,99458.22
2022-12-11T07:49:40.628Z,99465.00
2022-12-11T07:52:08.185Z,99468.31
2022-12-11T07:54:35.708Z,99461.63
2022-12-11T07:57:03.297Z,99466.88
2022-12-11T07:59:32.286Z,99457.22
2022-12-11T08:02:02.113Z,99461.03
2022-12-11T08:04:29.728Z,99468.69
2022-12-11T08:06:58.671Z,99461.31
2022-12-11T08:09:26.202Z,99464.41
2022-12-11T08:11:53.789Z,99472.44
2022-12-11T08:14:21.613Z,99478.56
2022-12-11T08:16:50.630Z,99466.47
2022-12-11T08:19:18.549Z,99466.63
2022-12-11T08:21:46.714Z,99462.84
2022-12-11T08:24:20.505Z,99461.44
2022-12-11T08:26:48.592Z,99467.38
2022-12-11T08:29:16.297Z,99461.84
2022-12-11T08:31:43.890Z,99465.31
2022-12-11T08:34:15.507Z,99465.19
2022-12-11T08:36:44.204Z,99460.88
2022-12-11T08:39:11.761Z,99464.22
2022-12-11T08:41:39.516Z,99460.50
2022-12-11T08:44:16.313Z,99463.81
2022-12-11T08:46:44.651Z,99463.41
2022-12-11T08:49:13.888Z,99465.63
2022-12-11T08:51:41.469Z,99463.00
2022-12-11T08:54:10.829Z,99461.63
2022-12-11T08:56:38.407Z,99458.66
2022-12-11T08:59:06.187Z,99451.03
2022-12-11T09:01:33.768Z,99447.69
2022-12-11T09:04:01.619Z,99443.00
2022-12-11T09:06:31.470Z,99440.47
2022-12-11T09:09:01.817Z,99444.75
2022-12-11T09:11:31.600Z,99444.41
2022-12-11T09:14:05.152Z,99440.59
2022-12-11T09:16:37.532Z,99443.41
2022-12-11T09:19:05.150Z,99426.16
2022-12-11T09:21:34.313Z,99440.19
2022-12-11T09:24:02.521Z,99438.53
2022-12-11T09:26:31.624Z,99437.97
2022-12-11T09:28:59.977Z,99438.78
2022-12-11T09:31:29.598Z,99444.56
2022-12-11T09:33:59.626Z,99443.34
2022-12-11T09:36:27.828Z,99432.44
2022-12-11T09:38:56.899Z,99433.03
2022-12-11T09:41:35.942Z,99436.22
2022-12-11T09:44:14.906Z,99435.41
2022-12-11T09:46:43.905Z,99433.25
2022-12-11T09:49:23.598Z,99430.50
2022-12-11T09:51:57.332Z,99424.69
2022-12-11T09:54:26.668Z,99422.13
2022-12-11T09:57:02.413Z,99424.44
2022-12-11T09:59:37.983Z,99417.41
2022-12-11T10:02:27.005Z,99416.69
2022-12-11T10:05:05.247Z,99417.63
2022-12-11T10:07:38.982Z,99411.88
2022-12-11T10:10:17.684Z,99410.78
2022-12-11T10:12:54.432Z,99400.72
2022-12-11T10:15:36.793Z,99398.00
2022-12-11T10:18:07.042Z,99402.38
2022-12-11T10:20:40.326Z,99397.38
2022-12-11T10:23:09.436Z,99399.78
2022-12-11T10:25:42.071Z,99394.09
2022-12-11T10:28:12.373Z,99392.09
2022-12-11T10:30:45.204Z,99381.53
2022-12-11T10:33:19.335Z,99386.91
2022-12-11T10:35:51.138Z,99388.09
2022-12-11T10:38:27.394Z,99388.16
2022-12-11T10:40:59.457Z,99382.09
2022-12-11T10:43:35.097Z,99376.13
2022-12-11T10:46:02.870Z,99369.72
2022-12-11T10:48:30.504Z,99375.19
2022-12-11T10:51:01.793Z,99375.78
2022-12-11T10:53:30.101Z,99369.09
2022-12-11T10:56:00.127Z,99363.63
2022-12-11T10:58:31.812Z,99366.78
2022-12-11T11:01:11.862Z,99362.69
2022-12-11T11:03:55.108Z,99359.91
2022-12-11T11:06:23.913Z,99361.41
2022-12-11T11:08:53.310Z,99353.31
2022-12-11T11:11:33.898Z,99346.53
2022-12-11T11:14:16.343Z,99346.09
2022-12-11T11:16:45.812Z,99353.25
2022-12-11T11:19:21.258Z,99348.84
2022-12-11T11:21:51.976Z,99347.81
2022-12-11T11:24:28.001Z,99343.97
2022-12-11T11:27:12.676Z,99346.88
2022-12-11T11:29:42.456Z,99345.97
2022-12-11T11:32:18.802Z,99349.56
2022-12-11T11:34:46.406Z,99343.31
2022-12-11T11:37:25.095Z,99351.22
2022-12-11T11:39:57.461Z,99350.38
2022-12-11T11:42:38.046Z,99346.47
2022-12-11T11:45:13.522Z,99348.66
2022-12-11T11:47:50.629Z,99343.69
2022-12-11T11:50:24.043Z,99343.28
2022-12-11T11:52:58.788Z,99338.06
2022-12-11T11:55:39.451Z,99342.91
2022-12-11T11:58:15.137Z,99335.28
2022-12-11T12:00:43.533Z,99338.41
2022-12-11T12:03:14.500Z,99332.78
2022-12-11T12:05:50.836Z,99334.72
2022-12-11T12:08:30.458Z,99330.22
2022-12-11T12:11:04.508Z,99337.03
2022-12-11T12:13:49.637Z,99330.25
2022-12-11T12:16:52.365Z,99327.88
2022-12-11T12:19:35.410Z,99330.28
2022-12-11T12:22:16.290Z,99333.84
2022-12-11T12:24:52.640Z,99335.00
2022-12-11T12:27:51.008Z,99329.78
2022-12-11T12:30:22.507Z,99333.56
2022-12-11T12:33:07.270Z,99321.88
2022-12-11T12:35:37.103Z,99323.38
2022-12-11T12:38:15.857Z,99313.81
2022-12-11T12:40:56.592Z,99318.66
2022-12-11T12:43:45.485Z,99317.72
2022-12-11T12:46:24.521Z,99321.53
2022-12-11T12:48:53.517Z,99310.63
2022-12-11T12:51:21.997Z,99308.41
2022-12-11T12:53:58.291Z,99305.59
2022-12-11T12:56:26.943Z,99302.25
2022-12-11T12:58:54.479Z,99299.81
2022-12-11T13:01:26.429Z,99303.38
2022-12-11T13:03:57.423Z,99307.59
2022-12-11T13:06:37.752Z,99300.63
2022-12-11T13:09:15.801Z,99309.91
2022-12-11T13:11:44.058Z,99309.31
2022-12-11T13:14:28.442Z,99302.63
2022-12-11T13:17:23.346Z,99298.44
2022-12-11T13:19:57.436Z,99299.59
2022-12-11T13:22:25.962Z,99297.25
2022-12-11T13:25:01.680Z,99290.44
2022-12-11T13:27:38.541Z,99288.56
2022-12-11T13:30:09.059Z,99285.38
2022-12-11T13:32:38.046Z,99291.53
2022-12-11T13:35:07.544Z,99304.97
2022-12-11T13:37:39.526Z,99310.69
2022-12-11T13:40:10.721Z,99310.63
2022-12-11T13:42:45.294Z,99316.84
2022-12-11T13:45:20.317Z,99307.16
2022-12-11T13:47:49.549Z,99303.00
2022-12-11T13:50:21.744Z,99314.81
2022-12-11T13:52:56.394Z,99316.53
2022-12-11T13:55:26.486Z,99317.13
2022-12-11T13:57:54.018Z,99325.34
2022-12-11T14:00:25.165Z,99330.41
2022-12-11T14:02:56.607Z,99326.25
2022-12-11T14:05:25.013Z,99327.00
2022-12-11T14:07:55.682Z,99325.28
2022-12-11T14:10:25.730Z,99328.47
2022-12-11T14:12:58.097Z,99333.53
2022-12-11T14:15:27.074Z,99328.84
2022-12-11T14:17:57.527Z,99331.78
2022-12-11T14:20:28.101Z,99340.31
2022-12-11T14:23:18.018Z,99342.69
2022-12-11T14:25:53.441Z,99342.91
2022-12-11T14:28:22.536Z,99353.00
2022-12-11T14:30:52.720Z,99343.50
2022-12-11T14:33:24.037Z,99349.78
2022-12-11T14:35:55.721Z,99352.72
2022-12-11T14:38:26.995Z,99358.16
2022-12-11T14:40:59.432Z,99350.47
2022-12-11T14:43:34.114Z,99347.78
2022-12-11T14:46:08.728Z,99356.03
2022-12-11T14:48:43.456Z,99362.47
2022-12-11T14:51:15.568Z,99373.00
2022-12-11T14:53:45.992Z,99368.41
2022-12-11T14:56:19.379Z,99367.75
2022-12-11T14:58:52.597Z,99363.88
2022-12-11T15:01:24.572Z,99368.84
2022-12-11T15:04:03.921Z,99363.47
2022-12-11T15:06:34.322Z,99358.25
2022-12-11T15:09:21.001Z,99369.41
2022-12-11T15:11:51.446Z,99363.47
2022-12-11T15:14:21.574Z,99367.28
2022-12-11T15:16:53.961Z,99367.44
2022-12-11T15:19:28.140Z,99369.34
2022-12-11T15:21:57.523Z,99369.97
2022-12-11T15:24:31.298Z,99372.38
2022-12-11T15:27:00.965Z,99367.47
2022-12-11T15:29:34.911Z,99367.06
2022-12-11T15:32:14.888Z,99380.41
2022-12-11T15:34:46.684Z,99376.63
2022-12-11T15:37:25.638Z,99385.28
2022-12-11T15:39:54.806Z,99384.50
2022-12-11T15:42:27.806Z,99390.28
2022-12-11T15:44:56.295Z,99388.19
2022-12-11T15:47:26.354Z,99387.34
2022-12-11T15:49:58.912Z,99386.22
2022-12-11T15:52:26.615Z,99390.09
2022-12-11T15:54:54.176Z,99389.59
2022-12-11T15:57:24.731Z,99388.47
2022-12-11T15:59:54.926Z,99383.59
2022-12-11T16:02:24.217Z,99392.44
2022-12-11T16:04:51.994Z,99390.81
2022-12-11T16:07:23.070Z,99388.91
2022-12-11T16:09:51.392Z,99393.00
2022-12-11T16:12:19.437Z,99390.16
2022-12-11T16:14:47.596Z,99398.97
2022-12-11T16:17:16.804Z,99388.34
2022-12-11T16:19:45.120Z,99387.38
2022-12-11T16:22:14.047Z,99396.63
2022-12-11T16:24:42.974Z,99389.31
2022-12-11T16:27:10.630Z,99384.50
2022-12-11T16:29:40.711Z,99385.44
2022-12-11T16:32:09.391Z,99387.28
2022-12-11T16:34:38.133Z,99384.91
2022-12-11T16:37:06.494Z,99390.16
2022-12-11T16:39:34.129Z,99387.84
2022-12-11T16:42:03.057Z,99388.63
2022-12-11T16:44:30.626Z,99377.78
2022-12-11T16:46:58.823Z,99381.56
2022-12-11T16:49:26.377Z,99379.53
2022-12-11T16:51:53.927Z,99392.00
2022-12-11T16:54:21.479Z,99388.06
2022-12-11T16:56:49.083Z,99389.97
2022-12-11T16:59:17.993Z,99388.22
2022-12-11T17:01:46.540Z,99386.84
2022-12-11T17:04:14.099Z,99390.72
2022-12-11T17:06:41.696Z,99383.91
2022-12-11T17:09:09.226Z,99377.25
2022-12-11T17:11:36.792Z,99375.84
2022-12-11T17:14:04.448Z,99373.50
2022-12-11T17:16:33.994Z,99376.69
2022-12-11T17:19:02.939Z,99366.94
2022-12-11T17:21:30.495Z,99370.78
2022-12-11T17:23:58.035Z,99366.97
2022-12-11T17:26:27.959Z,99371.25
2022-12-11T17:28:57.170Z,99364.25
2022-12-11T17:31:24.974Z,99362.78
2022-12-11T17:33:54.704Z,99368.53
2022-12-11T17:36:23.319Z,99364.88
2022-12-11T17:38:50.883Z,99359.31
2022-12-11T17:41:20.758Z,99364.72
2022-12-11T17:43:49.105Z,99364.53
2022-12-11T17:46:16.896Z,99362.63
2022-12-11T17:48:44.892Z,99366.91
2022-12-11T17:51:20.942Z,99363.75
2022-12-11T17:53:50.598Z,99356.34
2022-12-11T17:56:18.468Z,99350.66
2022-12-11T17:58:47.316Z,99354.94
2022-12-11T18:01:17.959Z,99351.69
2022-12-11T18:03:45.752Z,99360.84
2022-12-11T18:06:17.647Z,99356.53
2022-12-11T18:08:46.149Z,99353.28
2022-12-11T18:11:16.559Z,99349.53
2022-12-11T18:13:45.007Z,99347.44
2022-12-11T18:16:16.741Z,99345.69
2022-12-11T18:18:45.731Z,99348.69
2022-12-11T18:21:15.932Z,99349.22
2022-12-11T18:23:44.233Z,99351.66
2022-12-11T18:26:14.308Z,99356.53
2022-12-11T18:28:42.147Z,99352.69
2022-12-11T18:31:10.039Z,99363.31
2022-12-11T18:33:38.962Z,99360.44
2022-12-11T18:36:07.831Z,99353.38
2022-12-11T18:38:36.784Z,99361.06
2022-12-11T18:41:05.235Z,99352.44
2022-12-11T18:43:32.875Z,99355.66
2022-12-11T18:46:06.350Z,99350.44
2022-12-11T18:48:34.024Z,99341.53
2022-12-11T18:51:02.033Z,99354.09
2022-12-11T18:53:29.715Z,99360.16
2022-12-11T18:56:00.607Z,99353.19
2022-12-11T18:58:28.457Z,99362.94
2022-12-11T19:00:56.105Z,99355.94
2022-12-11T19:03:23.785Z,99369.97
2022-12-11T19:05:51.413Z,99361.41
2022-12-11T19:08:19.100Z,99360.25
2022-12-11T19:10:47.961Z,99363.50
2022-12-11T19:13:16.955Z,99358.34
2022-12-11T19:15:45.122Z,99368.25
2022-12-11T19:18:12.708Z,99363.91
2022-12-11T19:20:56.714Z,99357.00
2022-12-11T19:23:31.710Z,99357.44
2022-12-11T19:25:59.256Z,99362.19
2022-12-11T19:28:28.216Z,99365.38
2022-12-11T19:30:55.862Z,99368.72
2022-12-11T19:33:23.565Z,99370.06
2022-12-11T19:36:00.644Z,99369.13
2022-12-11T19:38:31.027Z,99367.97
2022-12-11T19:40:58.645Z,99373.88
2022-12-11T19:43:26.194Z,99376.22
2022-12-11T19:45:55.124Z,99369.41
2022-12-11T19:48:22.653Z,99374.19
2022-12-11T19:50:50.181Z,99374.38
2022-12-11T19:53:17.717Z,99373.03
2022-12-11T19:55:50.537Z,99381.91
2022-12-11T19:58:18.403Z,99377.78
2022-12-11T20:00:46.185Z,99376.47
2022-12-11T20:03:15.161Z,99384.22
2022-12-11T20:05:43.015Z,99378.41
2022-12-11T20:11:04.544Z,99383.84
2022-12-11T20:13:32.535Z,99390.84
2022-12-11T20:16:00.417Z,99383.84
2022-12-11T20:18:29.731Z,99388.91
2022-12-11T20:21:00.752Z,99391.41
2022-12-11T20:23:28.988Z,99394.91
2022-12-11T20:25:59.016Z,99405.00
2022-12-11T20:28:27.443Z,99404.41
2022-12-11T20:30:55.017Z,99398.56
2022-12-11T20:33:22.579Z,99400.69
2022-12-11T20:35:51.666Z,99400.06
2022-12-11T20:38:20.837Z,99396.56
2022-12-11T20:40:48.382Z,99404.91
2022-12-11T20:43:15.888Z,99399.34
2022-12-11T20:45:48.533Z,99390.38
2022-12-11T20:48:16.489Z,99394.31
2022-12-11T20:50:44.125Z,99397.53
2022-12-11T20:53:12.987Z,99392.25
2022-12-11T20:55:41.440Z,99402.00
2022-12-11T20:58:09.811Z,99393.38
2022-12-11T21:00:37.617Z,99395.38
2022-12-11T21:03:06.086Z,99401.22
2022-12-11T21:05:33.650Z,99406.19
2022-12-11T21:08:01.239Z,99402.72
2022-12-11T21:10:30.135Z,99406.03
2022-12-11T21:12:57.663Z,99400.78
2022-12-11T21:15:25.218Z,99412.09
2022-12-11T21:17:52.831Z,99400.84
2022-12-11T21:20:21.134Z,99410.25
2022-12-11T21:22:48.689Z,99415.38
2022-12-11T21:25:16.287Z,99413.13
2022-12-11T21:27:45.158Z,99413.13
2022-12-11T21:30:13.907Z,99412.19
2022-12-11T21:32:42.026Z,99408.78
2022-12-11T21:35:10.936Z,99410.16
2022-12-11T21:37:41.750Z,99406.50
2022-12-11T21:40:10.525Z,99404.13
2022-12-11T21:42:38.051Z,99405.63
2022-12-11T21:45:58.801Z,99404.91
2022-12-11T21:47:55.835Z,99409.38
2022-12-11T21:50:24.013Z,99410.53
2022-12-11T21:52:51.610Z,99412.47
2022-12-11T21:55:19.340Z,99413.06
2022-12-11T21:57:47.050Z,99413.84
2022-12-11T22:00:16.956Z,99415.00
2022-12-11T22:02:44.526Z,99416.94
2022-12-11T22:05:12.414Z,99418.06
2022-12-11T22:07:40.187Z,99423.13
2022-12-11T22:10:08.782Z,99423.13
2022-12-11T22:12:36.343Z,99422.16
2022-12-11T22:15:04.489Z,99417.88
2022-12-11T22:17:33.351Z,99416.50
2022-12-11T22:20:00.911Z,99414.75
2022-12-11T22:22:28.398Z,99414.75
2022-12-11T22:24:55.964Z,99424.69
2022-12-11T22:27:24.145Z,99415.63
2022-12-11T22:29:51.870Z,99417.44
2022-12-11T22:32:19.393Z,99418.44
2022-12-11T22:34:48.232Z,99421.91
2022-12-11T22:37:16.018Z,99408.47
2022-12-11T22:39:43.608Z,99418.72
2022-12-11T22:42:11.186Z,99419.75
2022-12-11T22:44:38.716Z,99420.34
2022-12-11T22:47:06.368Z,99418.78
2022-12-11T22:49:33.970Z,99424.00
2022-12-11T22:52:02.862Z,99420.88
2022-12-11T22:54:30.435Z,99426.66
2022-12-11T22:56:59.031Z,99416.84
2022-12-11T22:59:26.582Z,99418.00
2022-12-11T23:01:54.233Z,99418.59
2022-12-11T23:04:21.830Z,99414.69
2022-12-11T23:06:49.369Z,99419.16
2022-12-11T23:09:18.676Z,99414.09
2022-12-11T23:11:46.383Z,99419.22
2022-12-11T23:14:16.077Z,99416.81
2022-12-11T23:16:44.522Z,99415.03
2022-12-11T23:19:13.237Z,99410.75
2022-12-11T23:21:41.340Z,99414.97
2022-12-11T23:24:09.621Z,99418.47
2022-12-11T23:26:39.283Z,99414.44
2022-12-11T23:29:07.232Z,99417.94
2022-12-11T23:31:35.515Z,99422.81
2022-12-11T23:34:03.114Z,99419.16
2022-12-11T23:36:31.058Z,99422.47
2022-12-11T23:38:58.884Z,99423.13
2022-12-11T23:41:26.740Z,99425.59
2022-12-11T23:43:55.770Z,99425.41
2022-12-11T23:46:25.415Z,99429.22
2022-12-11T23:48:53.690Z,99415.28
2022-12-11T23:51:34.547Z,99424.13
2022-12-11T23:54:02.117Z,99425.91
2022-12-11T23:56:30.640Z,99419.94
2022-12-11T23:59:00.233Z,99429.38
